sensor_id;sensor_type;location;lat;lon;timestamp;P1;durP1;ratioP1;P2;durP2;ratioP2
52744;SDS011;38637;49.984;20.426;2022-10-16T00:00:52;13.53;;;10.57;;
52744;SDS011;38637;49.984;20.426;2022-10-16T00:03:18;12.57;;;11.17;;
52744;SDS011;38637;49.984;20.426;2022-10-16T00:05:43;16.07;;;11.00;;
52744;SDS011;38637;49.984;20.426;2022-10-16T00:08:12;12.90;;;10.35;;
52744;SDS011;38637;49.984;20.426;2022-10-16T00:10:38;16.48;;;9.75;;
52744;SDS011;38637;49.984;20.426;2022-10-16T00:13:04;11.55;;;9.32;;
52744;SDS011;38637;49.984;20.426;2022-10-16T00:15:33;14.07;;;10.18;;
52744;SDS011;38637;49.984;20.426;2022-10-16T00:18:01;17.42;;;9.52;;
52744;SDS011;38637;49.984;20.426;2022-10-16T00:20:26;10.90;;;8.90;;
52744;SDS011;38637;49.984;20.426;2022-10-16T00:22:52;15.10;;;9.63;;
52744;SDS011;38637;49.984;20.426;2022-10-16T00:25:17;11.23;;;9.17;;
52744;SDS011;38637;49.984;20.426;2022-10-16T00:27:42;14.97;;;9.77;;
52744;SDS011;38637;49.984;20.426;2022-10-16T00:30:08;11.23;;;9.77;;
52744;SDS011;38637;49.984;20.426;2022-10-16T00:32:33;12.73;;;9.67;;
52744;SDS011;38637;49.984;20.426;2022-10-16T00:34:59;9.97;;;8.37;;
52744;SDS011;38637;49.984;20.426;2022-10-16T00:37:24;30.37;;;9.27;;
52744;SDS011;38637;49.984;20.426;2022-10-16T00:39:50;12.40;;;9.23;;
52744;SDS011;38637;49.984;20.426;2022-10-16T00:42:16;12.47;;;8.90;;
52744;SDS011;38637;49.984;20.426;2022-10-16T00:47:18;15.07;;;9.15;;
52744;SDS011;38637;49.984;20.426;2022-10-16T00:49:44;12.65;;;7.80;;
52744;SDS011;38637;49.984;20.426;2022-10-16T00:52:13;11.80;;;8.13;;
52744;SDS011;38637;49.984;20.426;2022-10-16T00:54:39;7.97;;;6.57;;
52744;SDS011;38637;49.984;20.426;2022-10-16T00:57:05;8.80;;;7.77;;
52744;SDS011;38637;49.984;20.426;2022-10-16T01:02:05;8.38;;;7.03;;
52744;SDS011;38637;49.984;20.426;2022-10-16T01:15:17;12.47;;;7.80;;
52744;SDS011;38637;49.984;20.426;2022-10-16T01:20:27;10.00;;;8.00;;
52744;SDS011;38637;49.984;20.426;2022-10-16T01:22:59;8.57;;;7.68;;
52744;SDS011;38637;49.984;20.426;2022-10-16T01:25:34;9.38;;;7.85;;
52744;SDS011;38637;49.984;20.426;2022-10-16T01:28:11;8.07;;;7.03;;
52744;SDS011;38637;49.984;20.426;2022-10-16T01:30:39;8.52;;;7.43;;
52744;SDS011;38637;49.984;20.426;2022-10-16T01:33:12;8.20;;;7.40;;
52744;SDS011;38637;49.984;20.426;2022-10-16T01:35:44;9.93;;;8.25;;
52744;SDS011;38637;49.984;20.426;2022-10-16T01:38:17;8.95;;;7.80;;
52744;SDS011;38637;49.984;20.426;2022-10-16T01:40:48;12.38;;;7.80;;
52744;SDS011;38637;49.984;20.426;2022-10-16T01:43:22;7.43;;;6.40;;
52744;SDS011;38637;49.984;20.426;2022-10-16T01:45:50;8.25;;;6.75;;
52744;SDS011;38637;49.984;20.426;2022-10-16T01:48:18;9.02;;;7.05;;
52744;SDS011;38637;49.984;20.426;2022-10-16T01:50:49;8.57;;;6.68;;
52744;SDS011;38637;49.984;20.426;2022-10-16T01:53:19;8.15;;;6.50;;
52744;SDS011;38637;49.984;20.426;2022-10-16T01:55:47;9.35;;;6.95;;
52744;SDS011;38637;49.984;20.426;2022-10-16T01:58:14;12.70;;;7.20;;
52744;SDS011;38637;49.984;20.426;2022-10-16T02:00:41;12.90;;;7.38;;
52744;SDS011;38637;49.984;20.426;2022-10-16T02:03:11;10.60;;;6.93;;
52744;SDS011;38637;49.984;20.426;2022-10-16T02:05:50;9.27;;;6.70;;
52744;SDS011;38637;49.984;20.426;2022-10-16T02:08:18;7.55;;;6.85;;
52744;SDS011;38637;49.984;20.426;2022-10-16T02:10:44;10.30;;;7.45;;
52744;SDS011;38637;49.984;20.426;2022-10-16T02:13:10;12.27;;;7.23;;
52744;SDS011;38637;49.984;20.426;2022-10-16T02:15:44;9.82;;;6.80;;
52744;SDS011;38637;49.984;20.426;2022-10-16T02:18:10;12.07;;;7.77;;
52744;SDS011;38637;49.984;20.426;2022-10-16T02:20:37;12.80;;;6.70;;
52744;SDS011;38637;49.984;20.426;2022-10-16T02:23:09;10.82;;;6.90;;
52744;SDS011;38637;49.984;20.426;2022-10-16T02:25:40;9.45;;;7.18;;
52744;SDS011;38637;49.984;20.426;2022-10-16T02:28:12;9.25;;;7.20;;
52744;SDS011;38637;49.984;20.426;2022-10-16T02:30:44;8.40;;;7.07;;
52744;SDS011;38637;49.984;20.426;2022-10-16T02:33:13;8.65;;;6.97;;
52744;SDS011;38637;49.984;20.426;2022-10-16T02:35:41;10.85;;;6.68;;
52744;SDS011;38637;49.984;20.426;2022-10-16T02:38:08;10.43;;;6.57;;
52744;SDS011;38637;49.984;20.426;2022-10-16T02:40:34;8.98;;;6.97;;
52744;SDS011;38637;49.984;20.426;2022-10-16T02:43:02;8.73;;;7.40;;
52744;SDS011;38637;49.984;20.426;2022-10-16T02:45:30;12.07;;;6.80;;
52744;SDS011;38637;49.984;20.426;2022-10-16T02:47:55;7.97;;;6.90;;
52744;SDS011;38637;49.984;20.426;2022-10-16T02:50:21;8.43;;;7.43;;
52744;SDS011;38637;49.984;20.426;2022-10-16T02:52:47;7.80;;;7.00;;
52744;SDS011;38637;49.984;20.426;2022-10-16T02:55:12;13.33;;;7.13;;
52744;SDS011;38637;49.984;20.426;2022-10-16T02:57:38;7.77;;;6.97;;
52744;SDS011;38637;49.984;20.426;2022-10-16T03:00:05;8.13;;;6.82;;
52744;SDS011;38637;49.984;20.426;2022-10-16T03:02:32;8.13;;;6.63;;
52744;SDS011;38637;49.984;20.426;2022-10-16T03:04:58;12.60;;;8.20;;
52744;SDS011;38637;49.984;20.426;2022-10-16T03:07:23;49.47;;;23.43;;
52744;SDS011;38637;49.984;20.426;2022-10-16T03:09:49;146.63;;;56.23;;
52744;SDS011;38637;49.984;20.426;2022-10-16T03:12:14;186.83;;;84.17;;
52744;SDS011;38637;49.984;20.426;2022-10-16T03:14:39;124.43;;;55.90;;
52744;SDS011;38637;49.984;20.426;2022-10-16T03:17:05;108.50;;;47.00;;
52744;SDS011;38637;49.984;20.426;2022-10-16T03:19:31;83.15;;;37.63;;
52744;SDS011;38637;49.984;20.426;2022-10-16T03:21:56;52.60;;;29.57;;
52744;SDS011;38637;49.984;20.426;2022-10-16T03:24:22;69.67;;;37.30;;
52744;SDS011;38637;49.984;20.426;2022-10-16T03:26:47;52.73;;;31.80;;
52744;SDS011;38637;49.984;20.426;2022-10-16T03:29:13;38.43;;;23.67;;
52744;SDS011;38637;49.984;20.426;2022-10-16T03:31:38;32.70;;;21.40;;
52744;SDS011;38637;49.984;20.426;2022-10-16T03:34:03;38.83;;;21.53;;
52744;SDS011;38637;49.984;20.426;2022-10-16T03:36:29;29.13;;;16.10;;
52744;SDS011;38637;49.984;20.426;2022-10-16T03:38:54;25.73;;;15.77;;
52744;SDS011;38637;49.984;20.426;2022-10-16T03:41:19;25.67;;;16.07;;
52744;SDS011;38637;49.984;20.426;2022-10-16T03:43:45;46.40;;;20.03;;
52744;SDS011;38637;49.984;20.426;2022-10-16T03:46:10;51.87;;;19.57;;
52744;SDS011;38637;49.984;20.426;2022-10-16T03:48:36;67.47;;;22.23;;
52744;SDS011;38637;49.984;20.426;2022-10-16T03:51:01;61.83;;;22.63;;
52744;SDS011;38637;49.984;20.426;2022-10-16T03:53:27;75.17;;;30.03;;
52744;SDS011;38637;49.984;20.426;2022-10-16T03:55:52;91.87;;;32.23;;
52744;SDS011;38637;49.984;20.426;2022-10-16T03:58:17;87.67;;;36.53;;
52744;SDS011;38637;49.984;20.426;2022-10-16T04:00:45;73.05;;;31.60;;
52744;SDS011;38637;49.984;20.426;2022-10-16T04:03:12;56.05;;;26.55;;
52744;SDS011;38637;49.984;20.426;2022-10-16T04:05:37;41.60;;;16.93;;
52744;SDS011;38637;49.984;20.426;2022-10-16T04:08:02;32.30;;;15.20;;
52744;SDS011;38637;49.984;20.426;2022-10-16T04:10:28;17.90;;;9.93;;
52744;SDS011;38637;49.984;20.426;2022-10-16T04:12:53;12.77;;;7.93;;
52744;SDS011;38637;49.984;20.426;2022-10-16T04:15:24;7.65;;;5.93;;
52744;SDS011;38637;49.984;20.426;2022-10-16T04:17:51;7.20;;;6.50;;
52744;SDS011;38637;49.984;20.426;2022-10-16T04:20:16;11.70;;;6.00;;
52744;SDS011;38637;49.984;20.426;2022-10-16T04:22:42;8.40;;;6.90;;
52744;SDS011;38637;49.984;20.426;2022-10-16T04:25:07;9.50;;;6.77;;
52744;SDS011;38637;49.984;20.426;2022-10-16T04:27:33;7.70;;;6.93;;
52744;SDS011;38637;49.984;20.426;2022-10-16T04:29:59;10.53;;;6.90;;
52744;SDS011;38637;49.984;20.426;2022-10-16T04:32:25;9.77;;;6.00;;
52744;SDS011;38637;49.984;20.426;2022-10-16T04:34:50;6.95;;;6.05;;
52744;SDS011;38637;49.984;20.426;2022-10-16T04:37:16;8.63;;;6.43;;
52744;SDS011;38637;49.984;20.426;2022-10-16T04:39:41;7.87;;;6.93;;
52744;SDS011;38637;49.984;20.426;2022-10-16T04:42:06;6.70;;;6.00;;
52744;SDS011;38637;49.984;20.426;2022-10-16T04:44:32;7.00;;;6.30;;
52744;SDS011;38637;49.984;20.426;2022-10-16T04:46:57;8.00;;;6.27;;
52744;SDS011;38637;49.984;20.426;2022-10-16T04:49:22;8.40;;;6.83;;
52744;SDS011;38637;49.984;20.426;2022-10-16T04:51:47;7.63;;;6.83;;
52744;SDS011;38637;49.984;20.426;2022-10-16T04:54:13;7.03;;;6.33;;
52744;SDS011;38637;49.984;20.426;2022-10-16T04:56:38;11.40;;;6.90;;
52744;SDS011;38637;49.984;20.426;2022-10-16T04:59:13;10.93;;;6.50;;
52744;SDS011;38637;49.984;20.426;2022-10-16T05:01:39;7.13;;;6.30;;
52744;SDS011;38637;49.984;20.426;2022-10-16T05:04:05;12.87;;;6.90;;
52744;SDS011;38637;49.984;20.426;2022-10-16T05:06:30;13.73;;;6.30;;
52744;SDS011;38637;49.984;20.426;2022-10-16T05:08:55;9.23;;;6.87;;
52744;SDS011;38637;49.984;20.426;2022-10-16T05:11:21;9.60;;;6.97;;
52744;SDS011;38637;49.984;20.426;2022-10-16T05:13:46;9.67;;;6.80;;
52744;SDS011;38637;49.984;20.426;2022-10-16T05:16:11;7.53;;;6.67;;
52744;SDS011;38637;49.984;20.426;2022-10-16T05:18:37;8.57;;;6.83;;
52744;SDS011;38637;49.984;20.426;2022-10-16T05:21:02;7.87;;;6.30;;
52744;SDS011;38637;49.984;20.426;2022-10-16T05:23:28;10.53;;;6.77;;
52744;SDS011;38637;49.984;20.426;2022-10-16T05:25:53;7.83;;;6.93;;
52744;SDS011;38637;49.984;20.426;2022-10-16T05:28:22;7.32;;;6.03;;
52744;SDS011;38637;49.984;20.426;2022-10-16T05:30:48;7.40;;;6.60;;
52744;SDS011;38637;49.984;20.426;2022-10-16T05:33:13;8.40;;;6.53;;
52744;SDS011;38637;49.984;20.426;2022-10-16T05:35:39;11.10;;;6.27;;
52744;SDS011;38637;49.984;20.426;2022-10-16T05:38:04;10.80;;;6.60;;
52744;SDS011;38637;49.984;20.426;2022-10-16T05:40:29;8.40;;;5.80;;
52744;SDS011;38637;49.984;20.426;2022-10-16T05:42:55;7.33;;;5.90;;
52744;SDS011;38637;49.984;20.426;2022-10-16T05:45:20;7.00;;;5.80;;
52744;SDS011;38637;49.984;20.426;2022-10-16T05:47:45;12.50;;;5.23;;
52744;SDS011;38637;49.984;20.426;2022-10-16T05:50:11;6.87;;;5.47;;
52744;SDS011;38637;49.984;20.426;2022-10-16T05:52:36;8.43;;;6.70;;
52744;SDS011;38637;49.984;20.426;2022-10-16T05:55:02;8.07;;;6.20;;
52744;SDS011;38637;49.984;20.426;2022-10-16T05:57:27;8.98;;;6.53;;
52744;SDS011;38637;49.984;20.426;2022-10-16T05:59:53;9.53;;;6.10;;
52744;SDS011;38637;49.984;20.426;2022-10-16T06:02:18;8.47;;;6.13;;
52744;SDS011;38637;49.984;20.426;2022-10-16T06:04:43;8.43;;;5.97;;
52744;SDS011;38637;49.984;20.426;2022-10-16T06:07:09;7.20;;;6.50;;
52744;SDS011;38637;49.984;20.426;2022-10-16T06:09:34;14.37;;;7.00;;
52744;SDS011;38637;49.984;20.426;2022-10-16T06:11:59;9.30;;;6.30;;
52744;SDS011;38637;49.984;20.426;2022-10-16T06:14:25;20.17;;;6.73;;
52744;SDS011;38637;49.984;20.426;2022-10-16T06:16:50;7.83;;;6.03;;
52744;SDS011;38637;49.984;20.426;2022-10-16T06:19:15;9.93;;;6.00;;
52744;SDS011;38637;49.984;20.426;2022-10-16T06:21:42;7.47;;;6.38;;
52744;SDS011;38637;49.984;20.426;2022-10-16T06:24:08;8.37;;;7.40;;
52744;SDS011;38637;49.984;20.426;2022-10-16T06:26:34;9.55;;;8.20;;
52744;SDS011;38637;49.984;20.426;2022-10-16T06:28:59;11.13;;;7.80;;
52744;SDS011;38637;49.984;20.426;2022-10-16T06:31:25;11.27;;;6.90;;
52744;SDS011;38637;49.984;20.426;2022-10-16T06:33:53;7.57;;;6.40;;
52744;SDS011;38637;49.984;20.426;2022-10-16T06:36:18;7.93;;;6.38;;
52744;SDS011;38637;49.984;20.426;2022-10-16T06:38:44;7.97;;;6.75;;
52744;SDS011;38637;49.984;20.426;2022-10-16T06:41:11;7.63;;;6.73;;
52744;SDS011;38637;49.984;20.426;2022-10-16T06:43:41;9.18;;;7.22;;
52744;SDS011;38637;49.984;20.426;2022-10-16T06:46:09;7.90;;;6.47;;
52744;SDS011;38637;49.984;20.426;2022-10-16T06:48:35;11.80;;;6.55;;
52744;SDS011;38637;49.984;20.426;2022-10-16T06:53:29;8.88;;;6.50;;
52744;SDS011;38637;49.984;20.426;2022-10-16T06:55:55;6.43;;;5.82;;
52744;SDS011;38637;49.984;20.426;2022-10-16T06:58:21;9.15;;;5.90;;
52744;SDS011;38637;49.984;20.426;2022-10-16T07:00:47;6.57;;;5.97;;
52744;SDS011;38637;49.984;20.426;2022-10-16T07:03:13;9.90;;;6.80;;
52744;SDS011;38637;49.984;20.426;2022-10-16T07:05:39;8.93;;;6.33;;
52744;SDS011;38637;49.984;20.426;2022-10-16T07:10:31;6.28;;;5.25;;
52744;SDS011;38637;49.984;20.426;2022-10-16T07:12:56;6.38;;;5.43;;
52744;SDS011;38637;49.984;20.426;2022-10-16T07:15:22;6.10;;;5.00;;
52744;SDS011;38637;49.984;20.426;2022-10-16T07:17:47;6.63;;;4.87;;
52744;SDS011;38637;49.984;20.426;2022-10-16T07:20:13;5.93;;;5.33;;
52744;SDS011;38637;49.984;20.426;2022-10-16T07:22:38;9.70;;;5.50;;
52744;SDS011;38637;49.984;20.426;2022-10-16T07:25:03;9.07;;;5.07;;
52744;SDS011;38637;49.984;20.426;2022-10-16T07:27:29;5.53;;;4.90;;
52744;SDS011;38637;49.984;20.426;2022-10-16T07:29:54;5.80;;;4.57;;
52744;SDS011;38637;49.984;20.426;2022-10-16T07:32:20;6.07;;;5.53;;
52744;SDS011;38637;49.984;20.426;2022-10-16T07:34:45;7.40;;;5.67;;
52744;SDS011;38637;49.984;20.426;2022-10-16T07:37:10;5.27;;;4.60;;
52744;SDS011;38637;49.984;20.426;2022-10-16T07:39:36;7.03;;;4.60;;
52744;SDS011;38637;49.984;20.426;2022-10-16T07:42:01;5.47;;;4.87;;
52744;SDS011;38637;49.984;20.426;2022-10-16T07:44:27;6.17;;;5.17;;
52744;SDS011;38637;49.984;20.426;2022-10-16T07:46:52;7.07;;;5.90;;
52744;SDS011;38637;49.984;20.426;2022-10-16T07:49:17;5.47;;;4.80;;
52744;SDS011;38637;49.984;20.426;2022-10-16T07:51:43;9.43;;;5.70;;
52744;SDS011;38637;49.984;20.426;2022-10-16T07:54:09;5.43;;;4.93;;
52744;SDS011;38637;49.984;20.426;2022-10-16T07:56:34;7.20;;;5.80;;
52744;SDS011;38637;49.984;20.426;2022-10-16T07:59:00;7.07;;;5.40;;
52744;SDS011;38637;49.984;20.426;2022-10-16T08:01:26;6.43;;;4.97;;
52744;SDS011;38637;49.984;20.426;2022-10-16T08:03:52;5.70;;;5.05;;
52744;SDS011;38637;49.984;20.426;2022-10-16T08:06:18;8.77;;;5.07;;
52744;SDS011;38637;49.984;20.426;2022-10-16T08:08:45;11.32;;;4.85;;
52744;SDS011;38637;49.984;20.426;2022-10-16T08:11:11;8.50;;;4.70;;
52744;SDS011;38637;49.984;20.426;2022-10-16T08:13:36;4.77;;;4.27;;
52744;SDS011;38637;49.984;20.426;2022-10-16T08:16:02;6.03;;;4.20;;
52744;SDS011;38637;49.984;20.426;2022-10-16T08:18:32;9.00;;;4.60;;
52744;SDS011;38637;49.984;20.426;2022-10-16T08:20:59;9.88;;;4.47;;
52744;SDS011;38637;49.984;20.426;2022-10-16T08:23:25;6.88;;;3.78;;
52744;SDS011;38637;49.984;20.426;2022-10-16T08:25:52;6.82;;;4.10;;
52744;SDS011;38637;49.984;20.426;2022-10-16T08:28:18;7.85;;;5.10;;
52744;SDS011;38637;49.984;20.426;2022-10-16T08:30:44;6.30;;;5.13;;
52744;SDS011;38637;49.984;20.426;2022-10-16T08:33:09;5.53;;;4.10;;
52744;SDS011;38637;49.984;20.426;2022-10-16T08:35:34;4.77;;;4.37;;
52744;SDS011;38637;49.984;20.426;2022-10-16T08:38:02;7.10;;;5.50;;
52744;SDS011;38637;49.984;20.426;2022-10-16T08:40:29;6.18;;;4.32;;
52744;SDS011;38637;49.984;20.426;2022-10-16T08:46:01;5.88;;;4.57;;
52744;SDS011;38637;49.984;20.426;2022-10-16T08:48:51;4.95;;;4.43;;
52744;SDS011;38637;49.984;20.426;2022-10-16T08:51:20;7.32;;;4.28;;
52744;SDS011;38637;49.984;20.426;2022-10-16T08:53:56;12.90;;;4.38;;
52744;SDS011;38637;49.984;20.426;2022-10-16T08:56:23;5.10;;;4.20;;
52744;SDS011;38637;49.984;20.426;2022-10-16T08:58:51;5.63;;;5.13;;
52744;SDS011;38637;49.984;20.426;2022-10-16T09:01:17;4.82;;;4.28;;
52744;SDS011;38637;49.984;20.426;2022-10-16T09:21:35;5.22;;;4.45;;
52744;SDS011;38637;49.984;20.426;2022-10-16T09:24:11;5.35;;;4.30;;
52744;SDS011;38637;49.984;20.426;2022-10-16T09:26:39;8.63;;;5.40;;
52744;SDS011;38637;49.984;20.426;2022-10-16T09:29:04;5.43;;;4.03;;
52744;SDS011;38637;49.984;20.426;2022-10-16T09:31:29;4.97;;;4.27;;
52744;SDS011;38637;49.984;20.426;2022-10-16T09:33:57;5.53;;;3.87;;
52744;SDS011;38637;49.984;20.426;2022-10-16T09:36:25;6.88;;;3.45;;
52744;SDS011;38637;49.984;20.426;2022-10-16T09:39:01;5.75;;;3.20;;
52744;SDS011;38637;49.984;20.426;2022-10-16T09:41:28;5.13;;;3.72;;
52744;SDS011;38637;49.984;20.426;2022-10-16T09:43:57;3.23;;;2.93;;
52744;SDS011;38637;49.984;20.426;2022-10-16T09:48:58;3.67;;;3.38;;
52744;SDS011;38637;49.984;20.426;2022-10-16T09:51:32;3.88;;;3.47;;
52744;SDS011;38637;49.984;20.426;2022-10-16T09:56:35;4.90;;;3.92;;
52744;SDS011;38637;49.984;20.426;2022-10-16T09:59:22;4.88;;;3.75;;
52744;SDS011;38637;49.984;20.426;2022-10-16T10:01:53;4.38;;;3.53;;
52744;SDS011;38637;49.984;20.426;2022-10-16T10:04:20;5.75;;;3.97;;
52744;SDS011;38637;49.984;20.426;2022-10-16T10:06:51;4.75;;;3.75;;
52744;SDS011;38637;49.984;20.426;2022-10-16T10:09:37;8.38;;;4.63;;
52744;SDS011;38637;49.984;20.426;2022-10-16T10:12:04;7.95;;;4.53;;
52744;SDS011;38637;49.984;20.426;2022-10-16T10:14:45;5.45;;;4.10;;
52744;SDS011;38637;49.984;20.426;2022-10-16T10:17:17;6.00;;;4.53;;
52744;SDS011;38637;49.984;20.426;2022-10-16T10:22:18;7.47;;;4.00;;
52744;SDS011;38637;49.984;20.426;2022-10-16T10:25:15;4.35;;;3.53;;
52744;SDS011;38637;49.984;20.426;2022-10-16T10:35:58;6.22;;;4.07;;
52744;SDS011;38637;49.984;20.426;2022-10-16T10:38:59;3.70;;;3.40;;
52744;SDS011;38637;49.984;20.426;2022-10-16T10:44:16;4.15;;;3.75;;
52744;SDS011;38637;49.984;20.426;2022-10-16T10:52:47;6.55;;;3.78;;
52744;SDS011;38637;49.984;20.426;2022-10-16T11:03:41;4.75;;;4.05;;
52744;SDS011;38637;49.984;20.426;2022-10-16T11:09:18;6.95;;;4.97;;
52744;SDS011;38637;49.984;20.426;2022-10-16T11:11:50;4.20;;;3.53;;
52744;SDS011;38637;49.984;20.426;2022-10-16T11:14:26;6.90;;;4.15;;
52744;SDS011;38637;49.984;20.426;2022-10-16T11:17:00;3.88;;;3.53;;
52744;SDS011;38637;49.984;20.426;2022-10-16T11:19:57;7.10;;;4.18;;
52744;SDS011;38637;49.984;20.426;2022-10-16T11:30:46;4.82;;;4.20;;
52744;SDS011;38637;49.984;20.426;2022-10-16T11:44:27;6.93;;;4.25;;
52744;SDS011;38637;49.984;20.426;2022-10-16T11:49:47;6.07;;;3.80;;
52744;SDS011;38637;49.984;20.426;2022-10-16T11:52:23;5.57;;;4.15;;
52744;SDS011;38637;49.984;20.426;2022-10-16T11:57:43;4.93;;;3.83;;
52744;SDS011;38637;49.984;20.426;2022-10-16T12:00:19;7.78;;;4.55;;
52744;SDS011;38637;49.984;20.426;2022-10-16T12:09:01;7.72;;;4.50;;
52744;SDS011;38637;49.984;20.426;2022-10-16T12:16:32;7.32;;;4.97;;
52744;SDS011;38637;49.984;20.426;2022-10-16T12:19:18;5.20;;;3.53;;
52744;SDS011;38637;49.984;20.426;2022-10-16T12:21:43;8.30;;;4.30;;
52744;SDS011;38637;49.984;20.426;2022-10-16T12:24:20;5.63;;;4.60;;
52744;SDS011;38637;49.984;20.426;2022-10-16T12:26:52;5.55;;;3.38;;
52744;SDS011;38637;49.984;20.426;2022-10-16T12:34:55;5.60;;;4.30;;
52744;SDS011;38637;49.984;20.426;2022-10-16T12:37:23;5.97;;;4.03;;
52744;SDS011;38637;49.984;20.426;2022-10-16T12:39:51;5.65;;;3.90;;
52744;SDS011;38637;49.984;20.426;2022-10-16T12:44:52;9.80;;;4.57;;
52744;SDS011;38637;49.984;20.426;2022-10-16T12:47:19;4.45;;;3.97;;
52744;SDS011;38637;49.984;20.426;2022-10-16T12:49:57;4.82;;;3.97;;
52744;SDS011;38637;49.984;20.426;2022-10-16T12:52:24;7.95;;;4.03;;
52744;SDS011;38637;49.984;20.426;2022-10-16T12:54:59;10.10;;;4.72;;
52744;SDS011;38637;49.984;20.426;2022-10-16T12:59:57;9.97;;;4.10;;
52744;SDS011;38637;49.984;20.426;2022-10-16T13:08:04;5.82;;;4.35;;
52744;SDS011;38637;49.984;20.426;2022-10-16T13:10:58;5.00;;;4.05;;
52744;SDS011;38637;49.984;20.426;2022-10-16T13:13:48;3.40;;;3.10;;
52744;SDS011;38637;49.984;20.426;2022-10-16T13:16:34;5.93;;;3.83;;
52744;SDS011;38637;49.984;20.426;2022-10-16T13:19:21;5.15;;;4.00;;
52744;SDS011;38637;49.984;20.426;2022-10-16T13:21:53;4.18;;;3.75;;
52744;SDS011;38637;49.984;20.426;2022-10-16T13:30:12;6.10;;;4.10;;
52744;SDS011;38637;49.984;20.426;2022-10-16T13:32:50;4.78;;;3.58;;
52744;SDS011;38637;49.984;20.426;2022-10-16T13:35:25;5.47;;;3.92;;
52744;SDS011;38637;49.984;20.426;2022-10-16T13:40:36;3.80;;;3.42;;
52744;SDS011;38637;49.984;20.426;2022-10-16T13:43:01;4.27;;;3.77;;
52744;SDS011;38637;49.984;20.426;2022-10-16T13:45:27;4.57;;;3.43;;
52744;SDS011;38637;49.984;20.426;2022-10-16T13:48:02;5.00;;;3.27;;
52744;SDS011;38637;49.984;20.426;2022-10-16T13:50:33;4.00;;;3.60;;
52744;SDS011;38637;49.984;20.426;2022-10-16T13:53:05;4.30;;;3.30;;
52744;SDS011;38637;49.984;20.426;2022-10-16T13:55:31;6.60;;;4.00;;
52744;SDS011;38637;49.984;20.426;2022-10-16T13:58:13;4.25;;;3.60;;
52744;SDS011;38637;49.984;20.426;2022-10-16T14:00:39;6.45;;;3.65;;
52744;SDS011;38637;49.984;20.426;2022-10-16T14:03:17;5.28;;;3.78;;
52744;SDS011;38637;49.984;20.426;2022-10-16T14:05:54;4.57;;;3.38;;
52744;SDS011;38637;49.984;20.426;2022-10-16T14:08:23;4.07;;;3.67;;
52744;SDS011;38637;49.984;20.426;2022-10-16T14:10:51;5.57;;;4.28;;
52744;SDS011;38637;49.984;20.426;2022-10-16T14:13:28;3.92;;;3.50;;
52744;SDS011;38637;49.984;20.426;2022-10-16T14:18:24;4.00;;;3.60;;
52744;SDS011;38637;49.984;20.426;2022-10-16T14:20:51;7.65;;;3.70;;
52744;SDS011;38637;49.984;20.426;2022-10-16T14:23:21;8.67;;;3.43;;
52744;SDS011;38637;49.984;20.426;2022-10-16T14:28:33;3.90;;;3.60;;
52744;SDS011;38637;49.984;20.426;2022-10-16T14:30:59;4.37;;;3.97;;
52744;SDS011;38637;49.984;20.426;2022-10-16T14:38:35;4.88;;;4.18;;
52744;SDS011;38637;49.984;20.426;2022-10-16T14:41:02;4.72;;;4.25;;
52744;SDS011;38637;49.984;20.426;2022-10-16T14:43:36;7.80;;;4.38;;
52744;SDS011;38637;49.984;20.426;2022-10-16T14:46:03;5.55;;;4.35;;
52744;SDS011;38637;49.984;20.426;2022-10-16T14:48:34;9.45;;;4.10;;
52744;SDS011;38637;49.984;20.426;2022-10-16T14:50:59;5.10;;;4.60;;
52744;SDS011;38637;49.984;20.426;2022-10-16T14:53:25;5.37;;;4.27;;
52744;SDS011;38637;49.984;20.426;2022-10-16T14:55:50;9.10;;;4.43;;
52744;SDS011;38637;49.984;20.426;2022-10-16T14:58:16;8.77;;;4.90;;
52744;SDS011;38637;49.984;20.426;2022-10-16T15:00:44;5.03;;;4.53;;
52744;SDS011;38637;49.984;20.426;2022-10-16T15:03:09;4.63;;;4.17;;
52744;SDS011;38637;49.984;20.426;2022-10-16T15:05:34;5.03;;;3.80;;
52744;SDS011;38637;49.984;20.426;2022-10-16T15:08:00;10.47;;;4.43;;
52744;SDS011;38637;49.984;20.426;2022-10-16T15:10:25;5.87;;;3.77;;
52744;SDS011;38637;49.984;20.426;2022-10-16T15:12:53;5.88;;;3.95;;
52744;SDS011;38637;49.984;20.426;2022-10-16T15:17:55;5.03;;;4.07;;
52744;SDS011;38637;49.984;20.426;2022-10-16T15:22:50;5.75;;;4.40;;
52744;SDS011;38637;49.984;20.426;2022-10-16T15:25:23;5.00;;;3.70;;
52744;SDS011;38637;49.984;20.426;2022-10-16T15:27:54;6.38;;;4.57;;
52744;SDS011;38637;49.984;20.426;2022-10-16T15:30:19;9.27;;;4.13;;
52744;SDS011;38637;49.984;20.426;2022-10-16T15:32:44;4.93;;;4.13;;
52744;SDS011;38637;49.984;20.426;2022-10-16T15:35:10;5.97;;;4.70;;
52744;SDS011;38637;49.984;20.426;2022-10-16T15:37:35;4.83;;;4.37;;
52744;SDS011;38637;49.984;20.426;2022-10-16T15:40:00;6.40;;;4.83;;
52744;SDS011;38637;49.984;20.426;2022-10-16T15:42:26;7.87;;;5.20;;
52744;SDS011;38637;49.984;20.426;2022-10-16T15:44:51;7.17;;;5.33;;
52744;SDS011;38637;49.984;20.426;2022-10-16T15:47:16;6.20;;;4.50;;
52744;SDS011;38637;49.984;20.426;2022-10-16T15:49:42;10.27;;;5.60;;
52744;SDS011;38637;49.984;20.426;2022-10-16T15:52:07;5.97;;;4.73;;
52744;SDS011;38637;49.984;20.426;2022-10-16T15:54:32;5.70;;;5.00;;
52744;SDS011;38637;49.984;20.426;2022-10-16T15:56:58;5.97;;;5.10;;
52744;SDS011;38637;49.984;20.426;2022-10-16T15:59:23;8.93;;;5.50;;
52744;SDS011;38637;49.984;20.426;2022-10-16T16:01:48;7.67;;;6.70;;
52744;SDS011;38637;49.984;20.426;2022-10-16T16:04:13;9.27;;;5.67;;
52744;SDS011;38637;49.984;20.426;2022-10-16T16:06:39;10.20;;;7.05;;
52744;SDS011;38637;49.984;20.426;2022-10-16T16:09:09;8.70;;;6.68;;
52744;SDS011;38637;49.984;20.426;2022-10-16T16:11:35;9.35;;;6.50;;
52744;SDS011;38637;49.984;20.426;2022-10-16T16:14:03;10.07;;;5.93;;
52744;SDS011;38637;49.984;20.426;2022-10-16T16:16:29;8.48;;;6.60;;
52744;SDS011;38637;49.984;20.426;2022-10-16T16:18:54;10.13;;;6.93;;
52744;SDS011;38637;49.984;20.426;2022-10-16T16:21:20;10.30;;;6.47;;
52744;SDS011;38637;49.984;20.426;2022-10-16T16:23:45;11.70;;;7.03;;
52744;SDS011;38637;49.984;20.426;2022-10-16T16:26:12;11.77;;;7.30;;
52744;SDS011;38637;49.984;20.426;2022-10-16T16:28:41;7.55;;;6.75;;
52744;SDS011;38637;49.984;20.426;2022-10-16T16:31:07;7.63;;;6.28;;
52744;SDS011;38637;49.984;20.426;2022-10-16T16:33:33;13.98;;;7.07;;
52744;SDS011;38637;49.984;20.426;2022-10-16T16:35:59;9.13;;;7.43;;
52744;SDS011;38637;49.984;20.426;2022-10-16T16:38:26;11.95;;;7.70;;
52744;SDS011;38637;49.984;20.426;2022-10-16T16:40:52;13.83;;;7.27;;
52744;SDS011;38637;49.984;20.426;2022-10-16T16:43:18;10.90;;;7.90;;
52744;SDS011;38637;49.984;20.426;2022-10-16T16:45:44;9.20;;;7.80;;
52744;SDS011;38637;49.984;20.426;2022-10-16T16:48:09;14.17;;;10.20;;
52744;SDS011;38637;49.984;20.426;2022-10-16T16:50:35;12.63;;;8.53;;
52744;SDS011;38637;49.984;20.426;2022-10-16T16:53:01;9.07;;;7.75;;
52744;SDS011;38637;49.984;20.426;2022-10-16T16:55:26;9.27;;;7.57;;
52744;SDS011;38637;49.984;20.426;2022-10-16T16:57:52;12.97;;;7.43;;
52744;SDS011;38637;49.984;20.426;2022-10-16T17:00:17;8.90;;;8.00;;
52744;SDS011;38637;49.984;20.426;2022-10-16T17:02:42;9.77;;;8.73;;
52744;SDS011;38637;49.984;20.426;2022-10-16T17:05:08;9.87;;;8.83;;
52744;SDS011;38637;49.984;20.426;2022-10-16T17:07:34;7.93;;;6.93;;
52744;SDS011;38637;49.984;20.426;2022-10-16T17:10:00;9.07;;;7.60;;